createdAt,value
2022-12-15T00:02:19.981Z,12.03
2022-12-15T00:05:06.160Z,12.43
2022-12-15T00:07:52.261Z,12.17
2022-12-15T00:10:38.298Z,9.90
2022-12-15T00:13:31.865Z,11.60
2022-12-15T00:16:18.057Z,12.37
2022-12-15T00:19:04.231Z,12.13
2022-12-15T00:21:50.532Z,8.47
2022-12-15T00:24:36.288Z,10.03
2022-12-15T00:27:21.789Z,10.73
2022-12-15T00:30:07.962Z,9.03
2022-12-15T00:32:53.580Z,10.40
2022-12-15T00:35:39.296Z,12.80
2022-12-15T00:38:26.955Z,12.47
2022-12-15T00:40:59.071Z,13.07
2022-12-15T00:43:31.738Z,13.90
2022-12-15T00:46:18.297Z,12.53
2022-12-15T00:48:46.167Z,11.67
2022-12-15T00:51:14.213Z,11.90
2022-12-15T00:54:00.934Z,12.40
2022-12-15T00:56:47.225Z,12.53
2022-12-15T00:59:33.358Z,11.67
2022-12-15T01:02:19.601Z,10.80
2022-12-15T01:05:06.090Z,11.53
2022-12-15T01:07:52.230Z,9.60
2022-12-15T01:10:38.291Z,10.77
2022-12-15T01:13:24.634Z,8.17
2022-12-15T01:16:10.827Z,8.23
2022-12-15T01:18:56.663Z,8.37
2022-12-15T01:21:25.510Z,9.23
2022-12-15T01:23:53.138Z,9.80
2022-12-15T01:26:20.367Z,9.50
2022-12-15T01:28:47.600Z,10.70
2022-12-15T01:31:14.906Z,11.50
2022-12-15T01:33:44.930Z,10.50
2022-12-15T01:36:12.144Z,10.40
2022-12-15T01:38:39.282Z,10.73
2022-12-15T01:41:10.003Z,11.07
2022-12-15T01:43:39.526Z,9.90
2022-12-15T01:46:11.612Z,10.73
2022-12-15T01:48:48.143Z,10.77
2022-12-15T01:51:32.280Z,9.70
2022-12-15T01:54:05.292Z,9.97
2022-12-15T01:56:37.911Z,10.20
2022-12-15T01:59:09.292Z,11.00
2022-12-15T02:01:36.870Z,12.00
2022-12-15T02:04:04.291Z,11.23
2022-12-15T02:06:31.403Z,11.10
2022-12-15T02:09:00.859Z,10.23
2022-12-15T02:11:37.027Z,10.90
2022-12-15T02:14:07.580Z,9.40
2022-12-15T02:17:02.102Z,9.50
2022-12-15T02:19:51.078Z,10.20
2022-12-15T02:22:37.094Z,9.57
2022-12-15T02:25:11.574Z,9.73
2022-12-15T02:27:49.317Z,10.30
2022-12-15T02:30:42.193Z,8.97
2022-12-15T02:33:18.389Z,8.70
2022-12-15T02:36:27.152Z,7.60
2022-12-15T02:38:54.319Z,7.93
2022-12-15T02:41:39.635Z,7.17
2022-12-15T02:44:15.872Z,7.90
2022-12-15T02:47:01.091Z,8.00
2022-12-15T02:49:54.920Z,7.63
2022-12-15T02:53:03.987Z,7.90
2022-12-15T02:55:37.544Z,8.80
2022-12-15T02:58:28.052Z,9.63
2022-12-15T03:01:02.693Z,9.57
2022-12-15T03:03:32.868Z,9.50
2022-12-15T03:06:02.332Z,9.80
2022-12-15T03:08:29.906Z,10.53
2022-12-15T03:10:58.877Z,8.50
2022-12-15T03:13:26.071Z,10.57
2022-12-15T03:15:54.547Z,10.00
2022-12-15T03:18:21.988Z,9.90
2022-12-15T03:20:49.235Z,9.97
2022-12-15T03:23:16.485Z,9.30
2022-12-15T03:25:49.778Z,9.47
2022-12-15T03:28:17.576Z,9.63
2022-12-15T03:30:44.875Z,9.80
2022-12-15T03:33:12.177Z,9.50
2022-12-15T03:35:39.343Z,8.93
2022-12-15T03:38:06.565Z,9.40
2022-12-15T03:40:33.677Z,8.73
2022-12-15T03:43:00.790Z,9.57
2022-12-15T03:45:28.983Z,8.60
2022-12-15T03:47:58.096Z,9.57
2022-12-15T03:50:27.539Z,7.57
2022-12-15T03:52:58.686Z,9.40
2022-12-15T03:55:28.400Z,9.40
2022-12-15T03:57:55.950Z,8.90
2022-12-15T04:00:24.813Z,9.47
2022-12-15T04:02:52.709Z,8.77
2022-12-15T04:05:28.524Z,8.97
2022-12-15T04:07:57.599Z,9.00
2022-12-15T04:10:33.544Z,9.77
2022-12-15T04:13:06.112Z,8.43
2022-12-15T04:15:34.851Z,9.67
2022-12-15T04:18:04.305Z,10.07
2022-12-15T04:20:31.541Z,9.80
2022-12-15T04:22:58.971Z,8.63
2022-12-15T04:25:45.472Z,9.87
2022-12-15T04:28:32.099Z,9.37
2022-12-15T04:31:40.584Z,8.10
2022-12-15T04:34:31.714Z,8.23
2022-12-15T04:37:18.186Z,8.97
2022-12-15T04:40:08.902Z,8.30
2022-12-15T04:42:56.514Z,8.50
2022-12-15T04:45:44.195Z,7.67
2022-12-15T04:48:30.865Z,8.57
2022-12-15T04:51:16.712Z,9.07
2022-12-15T04:54:05.645Z,9.63
2022-12-15T04:56:51.586Z,8.77
2022-12-15T04:59:37.229Z,8.50
2022-12-15T05:02:22.919Z,9.03
2022-12-15T05:05:08.716Z,8.30
2022-12-15T05:07:54.102Z,8.00
2022-12-15T05:10:39.855Z,8.93
2022-12-15T05:13:26.668Z,8.47
2022-12-15T05:16:12.329Z,8.70
2022-12-15T05:18:58.232Z,9.03
2022-12-15T05:21:43.860Z,9.67
2022-12-15T05:24:29.506Z,10.30
2022-12-15T05:27:15.159Z,9.07
2022-12-15T05:30:00.922Z,9.37
2022-12-15T05:32:28.031Z,10.50
2022-12-15T05:34:55.174Z,10.40
2022-12-15T05:37:22.283Z,10.20
2022-12-15T05:39:49.478Z,10.80
2022-12-15T05:42:16.618Z,10.37
2022-12-15T05:44:43.999Z,11.23
2022-12-15T05:47:11.824Z,10.60
2022-12-15T05:49:39.057Z,9.17
2022-12-15T05:52:06.824Z,10.10
2022-12-15T05:54:33.966Z,9.13
2022-12-15T05:57:01.061Z,9.80
2022-12-15T05:59:28.199Z,8.90
2022-12-15T06:01:55.331Z,7.83
2022-12-15T06:04:22.564Z,7.40
2022-12-15T06:06:49.740Z,8.00
2022-12-15T06:09:16.926Z,8.53
2022-12-15T06:11:44.773Z,8.40
2022-12-15T06:14:11.930Z,8.87
2022-12-15T06:16:50.178Z,9.73
2022-12-15T06:19:20.035Z,8.53
2022-12-15T06:21:47.185Z,10.43
2022-12-15T06:24:14.420Z,8.73
2022-12-15T06:26:42.044Z,9.37
2022-12-15T06:29:11.351Z,10.27
2022-12-15T06:31:39.198Z,9.60
2022-12-15T06:34:10.517Z,9.60
2022-12-15T06:36:37.713Z,9.83
2022-12-15T06:39:07.163Z,9.97
2022-12-15T06:41:34.553Z,8.90
2022-12-15T06:44:01.787Z,8.93
2022-12-15T06:46:30.544Z,10.90
2022-12-15T06:48:58.811Z,9.50
2022-12-15T06:51:27.235Z,8.70
2022-12-15T06:53:55.327Z,9.13
2022-12-15T06:56:38.994Z,9.30
2022-12-15T06:59:07.417Z,9.43
2022-12-15T07:01:35.368Z,9.30
2022-12-15T07:04:05.429Z,9.23
2022-12-15T07:06:37.459Z,8.50
2022-12-15T07:09:07.954Z,9.07
2022-12-15T07:11:35.529Z,10.13
2022-12-15T07:14:03.241Z,9.10
2022-12-15T07:16:31.205Z,9.63
2022-12-15T07:18:58.452Z,10.23
2022-12-15T07:21:25.647Z,9.87
2022-12-15T07:23:55.173Z,9.60
2022-12-15T07:26:23.638Z,10.47
2022-12-15T07:28:51.301Z,11.10
2022-12-15T07:31:18.555Z,11.23
2022-12-15T07:33:47.496Z,10.90
2022-12-15T07:36:14.607Z,9.83
2022-12-15T07:38:41.813Z,10.70
2022-12-15T07:41:10.110Z,11.43
2022-12-15T07:43:38.184Z,12.33
2022-12-15T07:46:06.492Z,11.80
2022-12-15T07:48:33.945Z,11.80
2022-12-15T07:51:11.099Z,10.67
2022-12-15T07:53:42.586Z,12.07
2022-12-15T07:56:10.506Z,11.07
2022-12-15T07:58:38.577Z,12.50
2022-12-15T08:01:08.290Z,12.10
2022-12-15T08:03:37.103Z,12.33
2022-12-15T08:06:10.369Z,13.00
2022-12-15T08:08:38.451Z,12.40
2022-12-15T08:11:10.399Z,11.53
2022-12-15T08:14:01.987Z,12.90
2022-12-15T08:16:26.328Z,12.57
2022-12-15T08:18:53.879Z,13.97
2022-12-15T08:21:21.164Z,14.43
2022-12-15T08:23:48.327Z,12.90
2022-12-15T08:26:18.006Z,13.30
2022-12-15T08:28:45.847Z,12.80
2022-12-15T08:31:18.818Z,16.03
2022-12-15T08:33:46.968Z,13.27
2022-12-15T08:36:16.425Z,14.70
2022-12-15T08:38:45.600Z,14.07
2022-12-15T08:41:16.021Z,14.43
2022-12-15T08:43:48.656Z,10.43
2022-12-15T08:46:28.113Z,11.50
2022-12-15T08:48:55.727Z,9.90
2022-12-15T08:51:24.347Z,8.73
2022-12-15T08:53:51.530Z,9.53
2022-12-15T08:56:20.575Z,8.53
2022-12-15T08:58:49.389Z,8.03
2022-12-15T09:01:23.967Z,8.93
2022-12-15T09:03:53.849Z,9.83
2022-12-15T09:06:32.981Z,9.63
2022-12-15T09:09:02.689Z,9.53
2022-12-15T09:11:30.644Z,9.43
2022-12-15T09:13:58.160Z,9.47
2022-12-15T09:16:25.702Z,9.60
2022-12-15T09:18:55.228Z,7.50
2022-12-15T09:21:26.137Z,8.43
2022-12-15T09:23:57.708Z,10.17
2022-12-15T09:26:24.880Z,10.40
2022-12-15T09:28:57.750Z,10.33
2022-12-15T09:31:28.648Z,12.63
2022-12-15T09:33:59.585Z,12.70
2022-12-15T09:36:28.404Z,12.43
2022-12-15T09:38:55.538Z,12.97
2022-12-15T09:41:28.364Z,12.60
2022-12-15T09:44:20.316Z,13.90
2022-12-15T09:46:55.230Z,13.40
2022-12-15T09:49:43.653Z,11.83
2022-12-15T09:52:14.346Z,9.70
2022-12-15T09:54:43.195Z,10.13
2022-12-15T09:57:31.440Z,10.60
2022-12-15T10:00:12.296Z,8.70
2022-12-15T10:02:39.386Z,8.57
2022-12-15T10:05:17.100Z,9.20
2022-12-15T10:07:46.523Z,8.10
2022-12-15T10:10:43.220Z,8.37
2022-12-15T10:13:23.500Z,6.90
2022-12-15T10:16:26.776Z,7.80
2022-12-15T10:19:37.382Z,8.10
2022-12-15T10:22:04.673Z,7.10
2022-12-15T10:27:32.271Z,7.40
2022-12-15T10:30:10.820Z,5.67
2022-12-15T10:33:19.411Z,6.13
2022-12-15T10:35:47.961Z,5.40
2022-12-15T10:38:42.498Z,4.70
2022-12-15T10:41:16.143Z,5.37
2022-12-15T10:46:36.056Z,5.03
2022-12-15T10:49:06.367Z,5.33
2022-12-15T10:51:37.298Z,5.47
2022-12-15T10:54:10.591Z,6.30
2022-12-15T10:56:55.833Z,5.60
2022-12-15T10:59:22.886Z,6.03
2022-12-15T11:01:51.090Z,6.10
2022-12-15T11:04:26.909Z,6.20
2022-12-15T11:06:59.759Z,7.80
2022-12-15T11:09:29.722Z,8.70
2022-12-15T11:12:15.730Z,9.40
2022-12-15T11:14:45.602Z,10.30
2022-12-15T11:17:41.864Z,9.37
2022-12-15T11:20:18.640Z,10.50
2022-12-15T11:23:07.359Z,10.60
2022-12-15T11:26:00.449Z,9.87
2022-12-15T11:28:47.088Z,9.70
2022-12-15T11:31:23.330Z,9.43
2022-12-15T11:33:54.973Z,9.27
2022-12-15T11:36:31.047Z,9.67
2022-12-15T11:39:29.803Z,10.27
2022-12-15T11:42:29.429Z,10.27
2022-12-15T11:45:05.128Z,9.80
2022-12-15T11:47:45.034Z,9.53
2022-12-15T11:50:30.378Z,9.40
2022-12-15T11:53:11.442Z,9.90
2022-12-15T11:55:56.884Z,9.40
2022-12-15T11:58:37.935Z,10.07
2022-12-15T12:01:17.624Z,9.97
2022-12-15T12:03:48.238Z,10.10
2022-12-15T12:06:25.120Z,11.03
2022-12-15T12:09:07.305Z,10.70
2022-12-15T12:11:55.476Z,10.43
2022-12-15T12:14:31.308Z,9.93
2022-12-15T12:17:11.240Z,11.00
2022-12-15T12:19:50.840Z,11.17
2022-12-15T12:22:24.034Z,12.20
2022-12-15T12:25:03.931Z,12.77
2022-12-15T12:27:50.325Z,11.10
2022-12-15T12:30:23.203Z,11.50
2022-12-15T12:33:32.073Z,10.67
2022-12-15T12:36:25.544Z,12.33
2022-12-15T12:38:56.251Z,11.67
2022-12-15T12:41:36.800Z,11.70
2022-12-15T12:44:20.263Z,12.83
2022-12-15T12:46:52.174Z,12.30
2022-12-15T12:49:26.787Z,11.90
2022-12-15T12:51:56.861Z,12.20
2022-12-15T12:54:36.010Z,12.70
2022-12-15T12:57:35.207Z,11.17
2022-12-15T13:00:02.440Z,11.70
2022-12-15T13:02:35.352Z,12.20
2022-12-15T13:05:24.945Z,11.60
2022-12-15T13:08:06.859Z,12.30
2022-12-15T13:10:40.326Z,11.60
2022-12-15T13:13:31.305Z,12.60
2022-12-15T13:16:07.936Z,12.90
2022-12-15T13:19:08.504Z,12.10
2022-12-15T13:21:41.831Z,12.03
2022-12-15T13:24:41.638Z,12.10
2022-12-15T13:27:08.745Z,12.93
2022-12-15T13:29:57.072Z,12.30
2022-12-15T13:32:47.442Z,14.47
2022-12-15T13:35:14.705Z,14.13
2022-12-15T13:37:50.632Z,13.37
2022-12-15T13:40:37.747Z,14.70
2022-12-15T13:43:04.860Z,14.80
2022-12-15T13:45:38.162Z,14.60
2022-12-15T13:48:24.394Z,14.80
2022-12-15T13:51:18.281Z,14.37
2022-12-15T13:53:51.581Z,13.70
2022-12-15T13:56:27.862Z,14.90
2022-12-15T13:59:04.154Z,14.77
2022-12-15T14:01:33.532Z,14.23
2022-12-15T14:04:15.575Z,15.33
2022-12-15T14:07:00.673Z,15.10
2022-12-15T14:09:35.776Z,15.80
2022-12-15T14:12:05.504Z,16.33
2022-12-15T14:14:37.061Z,15.70
2022-12-15T14:17:08.766Z,15.73
2022-12-15T14:19:43.858Z,16.33
2022-12-15T14:22:28.168Z,16.10
2022-12-15T14:25:13.407Z,16.10
2022-12-15T14:27:40.750Z,15.53
2022-12-15T14:30:26.896Z,15.93
2022-12-15T14:33:24.064Z,15.27
2022-12-15T14:35:58.367Z,16.13
2022-12-15T14:38:49.929Z,15.80
2022-12-15T14:41:37.298Z,16.50
2022-12-15T14:44:36.353Z,16.70
2022-12-15T14:47:16.328Z,15.70
2022-12-15T14:49:45.494Z,16.90
2022-12-15T14:52:40.035Z,17.30
2022-12-15T14:55:38.845Z,17.43
2022-12-15T14:58:32.975Z,16.30
2022-12-15T15:01:03.114Z,17.80
2022-12-15T15:03:04.066Z,5.40
2022-12-15T15:03:39.313Z,15.77
2022-12-15T15:06:18.159Z,17.93
2022-12-15T15:08:50.910Z,16.47
2022-12-15T15:11:29.516Z,16.60
2022-12-15T15:14:00.522Z,16.30
2022-12-15T15:16:28.059Z,16.23
2022-12-15T15:18:56.462Z,16.63
2022-12-15T15:21:34.108Z,17.40
2022-12-15T15:24:02.250Z,18.27
2022-12-15T15:26:31.000Z,16.43
2022-12-15T15:28:58.795Z,17.90
2022-12-15T15:31:27.988Z,16.73
2022-12-15T15:33:57.959Z,18.40
2022-12-15T15:36:31.557Z,17.50
2022-12-15T15:38:59.351Z,16.70
2022-12-15T15:41:31.790Z,18.43
2022-12-15T15:44:00.606Z,17.80
2022-12-15T15:46:35.969Z,20.20
2022-12-15T15:49:08.146Z,19.43
2022-12-15T15:51:36.122Z,19.03
2022-12-15T15:54:06.357Z,18.40
2022-12-15T15:56:33.632Z,20.40
2022-12-15T15:59:13.857Z,19.93
2022-12-15T16:01:41.406Z,20.77
2022-12-15T16:04:09.107Z,20.20
2022-12-15T16:06:37.477Z,19.57
2022-12-15T16:09:09.658Z,18.77
2022-12-15T16:11:37.962Z,20.10
2022-12-15T16:14:12.019Z,19.70
2022-12-15T16:16:39.257Z,22.67
2022-12-15T16:19:06.917Z,20.17
2022-12-15T16:21:35.659Z,18.47
2022-12-15T16:24:14.488Z,17.90
2022-12-15T16:26:47.306Z,20.13
2022-12-15T16:29:20.009Z,18.30
2022-12-15T16:31:47.611Z,20.10
2022-12-15T16:34:19.336Z,20.40
2022-12-15T16:36:46.808Z,19.53
2022-12-15T16:39:27.555Z,18.93
2022-12-15T16:41:55.895Z,18.80
2022-12-15T16:44:23.925Z,18.97
2022-12-15T16:46:51.446Z,16.77
2022-12-15T16:49:18.747Z,17.37
2022-12-15T16:51:49.363Z,18.90
2022-12-15T16:54:30.549Z,17.47
2022-12-15T16:57:00.084Z,17.20
2022-12-15T16:59:35.958Z,18.20
2022-12-15T17:02:23.978Z,18.60
2022-12-15T17:04:51.758Z,19.73
2022-12-15T17:07:20.717Z,19.90
2022-12-15T17:09:50.147Z,19.23
2022-12-15T17:12:18.331Z,17.70
2022-12-15T17:14:46.007Z,18.80
2022-12-15T17:17:16.129Z,20.37
2022-12-15T17:19:57.832Z,22.13
2022-12-15T17:22:30.536Z,20.13
2022-12-15T17:24:57.661Z,19.00
2022-12-15T17:27:29.534Z,18.47
2022-12-15T17:29:59.030Z,19.60
2022-12-15T17:32:26.828Z,19.80
2022-12-15T17:34:54.016Z,18.77
2022-12-15T17:37:21.180Z,19.27
2022-12-15T17:39:51.445Z,20.23
2022-12-15T17:42:20.793Z,21.53
2022-12-15T17:44:49.125Z,19.00
2022-12-15T17:47:19.533Z,18.67
2022-12-15T17:49:47.538Z,19.10
2022-12-15T17:52:34.474Z,19.67
2022-12-15T17:55:03.473Z,20.40
2022-12-15T17:57:33.636Z,20.00
2022-12-15T18:00:02.005Z,19.33
2022-12-15T18:02:29.691Z,19.80
2022-12-15T18:04:57.139Z,21.20
2022-12-15T18:07:24.535Z,20.00
2022-12-15T18:09:52.936Z,19.37
2022-12-15T18:12:25.569Z,20.40
2022-12-15T18:14:53.393Z,22.00
2022-12-15T18:17:20.870Z,21.30
2022-12-15T18:19:48.520Z,19.77
2022-12-15T18:22:33.804Z,20.50
2022-12-15T18:25:00.897Z,20.70
2022-12-15T18:27:29.277Z,20.77
2022-12-15T18:29:56.973Z,20.97
2022-12-15T18:32:27.145Z,20.10
2022-12-15T18:34:54.892Z,19.63
2022-12-15T18:37:24.849Z,18.70
2022-12-15T18:39:52.671Z,19.50
2022-12-15T18:42:21.894Z,20.73
2022-12-15T18:44:51.950Z,19.93
2022-12-15T18:47:21.543Z,21.30
2022-12-15T18:49:48.980Z,19.87
2022-12-15T18:52:30.043Z,20.23
2022-12-15T18:55:00.267Z,21.10
2022-12-15T18:57:37.975Z,22.37
2022-12-15T19:00:14.056Z,20.37
2022-12-15T19:02:42.414Z,20.60
2022-12-15T19:05:27.416Z,22.90
2022-12-15T19:08:04.021Z,21.67
2022-12-15T19:10:34.063Z,22.17
2022-12-15T19:13:01.341Z,24.10
2022-12-15T19:15:28.483Z,22.50
2022-12-15T19:18:14.337Z,22.13
2022-12-15T19:21:01.278Z,23.10
2022-12-15T19:23:28.592Z,22.67
2022-12-15T19:25:56.078Z,21.23
2022-12-15T19:28:24.270Z,21.60
2022-12-15T19:30:52.335Z,21.43
2022-12-15T19:33:20.013Z,21.40
2022-12-15T19:35:51.130Z,21.27
2022-12-15T19:38:31.587Z,20.40
2022-12-15T19:40:59.779Z,24.83
2022-12-15T19:43:27.377Z,25.80
2022-12-15T19:45:54.656Z,26.40
2022-12-15T19:48:24.049Z,27.43
2022-12-15T19:50:52.488Z,22.40
2022-12-15T19:53:31.298Z,21.03
2022-12-15T19:56:01.870Z,21.50
2022-12-15T19:58:34.815Z,19.03
2022-12-15T20:01:10.074Z,21.83
2022-12-15T20:03:37.895Z,20.00
2022-12-15T20:06:18.584Z,21.70
2022-12-15T20:08:48.247Z,21.80
2022-12-15T20:11:20.779Z,20.10
2022-12-15T20:13:49.308Z,19.70
2022-12-15T20:16:19.112Z,20.87
2022-12-15T20:18:52.298Z,21.60
2022-12-15T20:21:22.517Z,20.90
2022-12-15T20:23:53.815Z,23.03
2022-12-15T20:26:21.843Z,20.73
2022-12-15T20:28:49.042Z,21.60
2022-12-15T20:31:18.585Z,22.07
2022-12-15T20:33:46.701Z,21.80
2022-12-15T20:36:16.701Z,21.37
2022-12-15T20:38:44.736Z,21.90
2022-12-15T20:41:23.241Z,19.20
2022-12-15T20:43:51.346Z,22.30
2022-12-15T20:46:24.170Z,21.60
2022-12-15T20:48:53.526Z,21.07
2022-12-15T20:51:26.576Z,22.33
2022-12-15T20:53:55.943Z,22.17
2022-12-15T20:56:24.052Z,19.87
2022-12-15T20:58:52.951Z,21.00
2022-12-15T21:01:27.136Z,22.60
2022-12-15T21:03:56.528Z,21.80
2022-12-15T21:06:25.297Z,20.10
2022-12-15T21:08:52.984Z,20.33
2022-12-15T21:11:24.337Z,21.00
2022-12-15T21:13:53.668Z,22.23
2022-12-15T21:16:26.824Z,22.30
2022-12-15T21:21:47.785Z,21.60
2022-12-15T21:24:19.695Z,23.20
2022-12-15T21:26:47.035Z,21.23
2022-12-15T21:29:17.071Z,22.57
2022-12-15T21:31:45.256Z,23.73
2022-12-15T21:34:12.837Z,22.30
2022-12-15T21:36:43.989Z,20.53
2022-12-15T21:39:31.006Z,22.40
2022-12-15T21:42:00.313Z,22.23
2022-12-15T21:44:27.610Z,19.60
2022-12-15T21:46:54.846Z,22.50
2022-12-15T21:49:22.136Z,22.07
2022-12-15T21:52:00.344Z,20.93
2022-12-15T21:54:31.717Z,20.60
2022-12-15T21:57:00.216Z,22.00
2022-12-15T21:59:30.152Z,22.00
2022-12-15T22:01:57.554Z,20.97
2022-12-15T22:04:29.416Z,21.80
2022-12-15T22:06:56.563Z,19.90
2022-12-15T22:09:23.712Z,22.97
2022-12-15T22:11:55.804Z,21.23
2022-12-15T22:14:33.076Z,22.03
2022-12-15T22:17:16.367Z,22.93
2022-12-15T22:19:43.796Z,21.40
2022-12-15T22:22:12.339Z,22.73
2022-12-15T22:24:40.080Z,21.03
2022-12-15T22:27:20.420Z,21.07
2022-12-15T22:29:49.305Z,22.50
2022-12-15T22:32:17.400Z,20.23
2022-12-15T22:34:44.666Z,21.37
2022-12-15T22:37:11.754Z,20.93
2022-12-15T22:39:38.872Z,19.87
2022-12-15T22:42:06.382Z,21.33
2022-12-15T22:44:37.332Z,20.83
2022-12-15T22:47:06.585Z,21.83
2022-12-15T22:49:38.646Z,20.63
2022-12-15T22:52:20.383Z,22.00
2022-12-15T22:54:48.015Z,22.77
2022-12-15T22:57:23.050Z,23.40
2022-12-15T23:00:08.892Z,22.10
2022-12-15T23:02:40.775Z,22.33
2022-12-15T23:05:09.242Z,23.30
2022-12-15T23:07:36.484Z,22.07
2022-12-15T23:10:23.649Z,21.43
2022-12-15T23:12:54.444Z,21.23
2022-12-15T23:15:45.745Z,20.90
2022-12-15T23:18:13.439Z,22.50
2022-12-15T23:20:40.590Z,22.83
2022-12-15T23:23:08.635Z,21.37
2022-12-15T23:25:36.087Z,20.70
2022-12-15T23:28:03.601Z,21.87
2022-12-15T23:30:30.841Z,20.47
2022-12-15T23:32:57.998Z,22.10
2022-12-15T23:35:25.218Z,23.57
2022-12-15T23:37:52.338Z,22.27
2022-12-15T23:40:22.283Z,22.30
2022-12-15T23:42:50.684Z,21.77
2022-12-15T23:45:18.946Z,22.07
2022-12-15T23:47:46.153Z,23.23
2022-12-15T23:50:14.028Z,24.93
2022-12-15T23:52:41.416Z,22.93
2022-12-15T23:55:11.259Z,24.27
2022-12-15T23:57:39.411Z,23.50
